Harristown, IL (62537)

7:09 AM CST on January 28, 2015 (GMT -0600)
APPLEVILLE | Change Station
CLOSE
Current Station
Personal Weather Station
Location: Mt Auburn, IL
Elevation: 607 ft
Nearby Weather Stations

Elev 607 ft 39.80 °N, 89.14 °W | Updated 2 minutes ago

Clear
Clear
24.3 °F
Feels Like 24 °F
N
0.0
Wind Variable Wind from East
Gusts 2.5 mph

Today
High -- | Low -- °F
--% Chance of Precip.
Yesterday
High -- | Low -- °F
Precip. -- in
7:08 AM 5:10 PM
Waxing Gibbous, 64% visible
Pressure 30.30 in
Visibility 10.0 miles
Clouds Clear
Windchill 24 °F
Dew Point 2 °F
Humidity 37%
Rainfall 0.00 in
Snow Depth Not available.
UV 0 out of 12
Pollen .10 out of 12
Air Quality Not available.
Flu Activity Not available.
METAR KDEC 281254Z 15009KT 10SM CLR M05/M08 A3027 RMK AO2 SLP260 T10501083

More Conditions Fewer Conditions

Pressure 30.30 in
Visibility 10.0 miles
Clouds Clear
Windchill 24 °F
Dew Point 2 °F
Humidity 37%
Rainfall 0.00 in
Snow Depth Not available.
UV 0 out of 12
Pollen .10 out of 12
Air Quality Not available.
Flu Activity Not available.
METAR KDEC 281254Z 15009KT 10SM CLR M05/M08 A3027 RMK AO2 SLP260 T10501083

More Conditions Fewer Conditions

10-Day Weather Forecast

Almanac

Astronomy

Jan. 28, 2015 Rise Set
Actual Time
Civil Twilight
Nautical Twilight
Astronomical Twilight
Moon
Length of Visible Light
Length of Day
Tomorrow will be .
, % of the Moon is Illuminated

Today's Extremes

State Highs State Lows

Community

WunderPhotos

Upload Photos

1,791,134 photos uploaded!

WunderBlogs® & News

Nearby

Air Quality

  Air Quality AQ Index Pollutant
Not available.

Snow Depth

Station Depth Elevation

Earthquake Activity

City Distance Mag. Time & Date
Minimum magnitude displayed is 2.5.

Coastal Water Temperatures

Place Temperature

Nearby Weather Stations